Time;durP1;ratioP1;P1;durP2;ratioP2;P2;SDS_P1;SDS_P2;PMS_P1;PMS_P2;Temp;Humidity;BMP_temperature;BMP_pressure;BME280_temperature;BME280_humidity;BME280_pressure;Samples;Min_cycle;Max_cycle;Signal;HPM_P1;HPM_P2
2023/05/19 00:03:52;;;;;;;10.00;3.07;;;;;;;;;;10468241;28;20044;-79
2023/05/19 00:08:56;;;;;;;8.55;2.78;;;;;;;;;;10468762;28;20337;-79
2023/05/19 00:13:59;;;;;;;9.77;2.85;;;;;;;;;;10465821;28;20033;-79
2023/05/19 00:19:05;;;;;;;7.97;3.17;;;;;;;;;;10477301;28;20538;-79
2023/05/19 00:24:08;;;;;;;9.38;3.10;;;;;;;;;;10479390;28;20191;-79
2023/05/19 00:29:10;;;;;;;6.57;3.25;;;;;;;;;;10468796;28;20041;-79
2023/05/19 00:34:14;;;;;;;9.07;3.28;;;;;;;;;;10480719;28;20132;-77
2023/05/19 00:39:17;;;;;;;9.85;2.90;;;;;;;;;;10481349;28;20046;-79
2023/05/19 00:44:19;;;;;;;7.13;2.88;;;;;;;;;;10477358;28;20485;-78
2023/05/19 00:49:23;;;;;;;9.68;3.08;;;;;;;;;;10479225;28;20246;-78
2023/05/19 00:54:26;;;;;;;6.32;2.35;;;;;;;;;;10481603;28;20037;-78
2023/05/19 00:59:29;;;;;;;8.80;2.65;;;;;;;;;;10474177;28;20054;-76
2023/05/19 01:04:33;;;;;;;10.88;3.50;;;;;;;;;;10474786;28;20058;-78
2023/05/19 01:09:36;;;;;;;10.07;3.25;;;;;;;;;;10472454;28;20597;-78
2023/05/19 01:14:39;;;;;;;9.27;3.75;;;;;;;;;;10477716;28;20480;-77
2023/05/19 01:19:53;;;;;;;13.37;3.33;;;;;;;;;;10471410;28;20153;-78
2023/05/19 01:25:04;;;;;;;8.23;2.88;;;;;;;;;;10473068;28;20489;-77
2023/05/19 01:30:33;;;;;;;14.07;3.85;;;;;;;;;;10474955;28;20127;-77
2023/05/19 01:35:38;;;;;;;10.50;2.85;;;;;;;;;;10435269;28;20057;-77
2023/05/19 01:40:42;;;;;;;11.98;3.47;;;;;;;;;;10471339;28;20090;-77
2023/05/19 01:45:45;;;;;;;8.77;3.20;;;;;;;;;;10476092;28;20049;-78
2023/05/19 01:50:49;;;;;;;9.90;3.45;;;;;;;;;;10476570;28;20041;-77
2023/05/19 01:55:53;;;;;;;6.55;2.70;;;;;;;;;;10476481;28;20044;-78
2023/05/19 02:00:56;;;;;;;;;;;;;;;;;;10467043;28;20378;-77
2023/05/19 02:06:03;;;;;;;10.75;3.00;;;;;;;;;;10463804;28;19920;-79
2023/05/19 02:11:07;;;;;;;7.97;2.90;;;;;;;;;;10473647;28;20044;-77
2023/05/19 02:16:11;;;;;;;8.85;3.35;;;;;;;;;;10468503;28;20040;-79
2023/05/19 02:21:14;;;;;;;;;;;;;;;;;;10469789;28;20040;-78
2023/05/19 02:26:20;;;;;;;7.30;2.92;;;;;;;;;;10475184;28;19925;-78
2023/05/19 02:31:23;;;;;;;8.02;3.15;;;;;;;;;;10475748;28;20526;-78
2023/05/19 02:36:27;;;;;;;7.35;2.72;;;;;;;;;;10479681;28;20675;-79
2023/05/19 02:41:31;;;;;;;8.40;2.75;;;;;;;;;;10468081;28;20037;-79
2023/05/19 02:46:34;;;;;;;7.63;3.17;;;;;;;;;;10470251;28;20041;-79
2023/05/19 02:51:37;;;;;;;11.18;4.15;;;;;;;;;;10473079;28;20119;-79
2023/05/19 02:56:41;;;;;;;11.63;3.80;;;;;;;;;;10474406;28;20066;-78
2023/05/19 03:01:44;;;;;;;5.20;2.80;;;;;;;;;;10468170;28;20659;-78
2023/05/19 03:06:47;;;;;;;9.90;3.40;;;;;;;;;;10473163;28;20131;-78
2023/05/19 03:11:51;;;;;;;11.30;3.72;;;;;;;;;;10472692;28;20040;-78
2023/05/19 03:16:54;;;;;;;9.90;3.65;;;;;;;;;;10471505;28;20044;-77
2023/05/19 03:21:57;;;;;;;7.78;3.53;;;;;;;;;;10464964;28;20068;-78
2023/05/19 03:27:01;;;;;;;9.93;3.25;;;;;;;;;;10471807;28;20047;-78
2023/05/19 03:32:04;;;;;;;8.90;3.22;;;;;;;;;;10470582;28;20443;-78
2023/05/19 03:37:07;;;;;;;7.63;3.43;;;;;;;;;;10468037;28;20075;-78
2023/05/19 03:42:11;;;;;;;7.57;2.80;;;;;;;;;;10468819;28;20067;-78
2023/05/19 03:47:14;;;;;;;10.05;3.28;;;;;;;;;;10456852;28;20466;-77
2023/05/19 03:52:17;;;;;;;9.07;3.33;;;;;;;;;;10479832;28;20040;-77
2023/05/19 03:57:22;;;;;;;9.23;3.58;;;;;;;;;;10479244;28;20041;-78
2023/05/19 04:02:24;;;;;;;9.85;3.00;;;;;;;;;;10473007;28;20044;-77
2023/05/19 04:07:27;;;;;;;9.45;3.13;;;;;;;;;;10474831;28;20263;-77
2023/05/19 04:12:31;;;;;;;9.27;3.47;;;;;;;;;;10477131;28;20047;-78
2023/05/19 04:17:34;;;;;;;6.97;2.83;;;;;;;;;;10479209;28;20416;-78
2023/05/19 04:22:37;;;;;;;7.90;2.80;;;;;;;;;;10479544;28;20378;-77
2023/05/19 04:27:41;;;;;;;7.22;2.88;;;;;;;;;;10479359;28;20051;-77
2023/05/19 04:32:43;;;;;;;4.95;2.53;;;;;;;;;;10480259;28;20049;-77
2023/05/19 04:37:47;;;;;;;8.25;2.70;;;;;;;;;;10482058;28;20464;-78
2023/05/19 04:42:51;;;;;;;11.27;3.45;;;;;;;;;;10483514;28;20052;-78
2023/05/19 04:47:56;;;;;;;8.75;2.90;;;;;;;;;;10479936;28;20041;-78
2023/05/19 04:52:59;;;;;;;7.40;2.92;;;;;;;;;;10475934;28;20064;-78
2023/05/19 04:58:03;;;;;;;7.57;3.50;;;;;;;;;;10474389;28;20048;-77
2023/05/19 05:03:06;;;;;;;7.13;2.92;;;;;;;;;;10479879;28;20040;-77
2023/05/19 05:08:09;;;;;;;8.05;3.50;;;;;;;;;;10475974;28;20297;-77
2023/05/19 05:13:14;;;;;;;5.47;3.03;;;;;;;;;;10480435;28;20409;-78
2023/05/19 05:18:17;;;;;;;7.43;3.50;;;;;;;;;;10471991;28;20110;-78
2023/05/19 05:23:19;;;;;;;7.05;3.15;;;;;;;;;;10475397;28;20071;-76
2023/05/19 05:28:23;;;;;;;7.00;2.72;;;;;;;;;;10472123;28;20043;-78
2023/05/19 05:33:26;;;;;;;;;;;;;;;;;;10479116;28;20073;-78
2023/05/19 05:38:28;;;;;;;7.13;3.20;;;;;;;;;;10478185;28;19920;-76
2023/05/19 05:43:33;;;;;;;6.45;3.08;;;;;;;;;;10477210;28;20082;-78
2023/05/19 05:48:35;;;;;;;;;;;;;;;;;;10481131;28;20446;-77
2023/05/19 05:53:41;;;;;;;6.72;3.17;;;;;;;;;;10478868;28;20656;-76
2023/05/19 05:58:45;;;;;;;11.25;3.08;;;;;;;;;;10480532;28;20037;-77
2023/05/19 06:03:47;;;;;;;6.38;3.33;;;;;;;;;;10478666;28;20049;-78
2023/05/19 06:08:50;;;;;;;9.93;2.60;;;;;;;;;;10472321;28;20109;-78
2023/05/19 06:13:54;;;;;;;10.35;3.53;;;;;;;;;;10469837;28;20044;-77
2023/05/19 06:18:57;;;;;;;8.82;3.28;;;;;;;;;;10472855;28;20116;-77
2023/05/19 06:24:00;;;;;;;7.78;3.30;;;;;;;;;;10476187;28;20505;-77
2023/05/19 06:29:04;;;;;;;8.50;2.30;;;;;;;;;;10476916;28;20045;-77
2023/05/19 06:34:09;;;;;;;5.90;2.22;;;;;;;;;;10472901;28;20536;-79
2023/05/19 06:39:11;;;;;;;8.75;3.88;;;;;;;;;;10456502;28;20086;-81
2023/05/19 06:44:16;;;;;;;12.32;2.97;;;;;;;;;;10449482;28;20045;-80
2023/05/19 06:49:22;;;;;;;8.00;3.40;;;;;;;;;;10444900;28;20285;-81
2023/05/19 06:54:25;;;;;;;6.82;3.15;;;;;;;;;;10441533;28;20051;-81
2023/05/19 06:59:29;;;;;;;5.47;2.80;;;;;;;;;;10445802;28;20037;-81
2023/05/19 07:04:32;;;;;;;5.80;3.20;;;;;;;;;;10432979;28;20045;-82
2023/05/19 07:09:34;;;;;;;9.13;3.13;;;;;;;;;;10446023;28;20040;-80
2023/05/19 07:14:38;;;;;;;8.53;2.90;;;;;;;;;;10444099;28;20040;-80
2023/05/19 07:19:41;;;;;;;6.97;3.10;;;;;;;;;;10447652;28;20035;-81
2023/05/19 07:24:44;;;;;;;6.50;3.53;;;;;;;;;;10440054;28;20044;-81
2023/05/19 07:29:48;;;;;;;8.98;3.53;;;;;;;;;;10447856;28;20075;-81
2023/05/19 07:34:51;;;;;;;6.95;3.40;;;;;;;;;;10451456;28;20596;-81
2023/05/19 07:39:54;;;;;;;8.27;4.30;;;;;;;;;;10456336;28;20144;-81
2023/05/19 07:44:58;;;;;;;7.83;3.80;;;;;;;;;;10457118;28;20047;-81
2023/05/19 07:50:00;;;;;;;11.93;3.78;;;;;;;;;;10450411;28;20409;-82
2023/05/19 07:55:04;;;;;;;7.85;4.00;;;;;;;;;;10448634;28;20553;-81
2023/05/19 08:00:10;;;;;;;5.88;3.53;;;;;;;;;;10455414;28;20041;-83
2023/05/19 08:05:13;;;;;;;10.73;4.13;;;;;;;;;;10452646;28;20502;-83
2023/05/19 08:10:16;;;;;;;7.70;3.97;;;;;;;;;;10450548;28;20033;-84
2023/05/19 08:15:19;;;;;;;9.63;4.33;;;;;;;;;;10447182;28;20394;-84
2023/05/19 08:20:23;;;;;;;10.32;3.95;;;;;;;;;;10452010;28;20109;-82
2023/05/19 08:25:26;;;;;;;;;;;;;;;;;;10455405;28;20041;-83
2023/05/19 08:30:30;;;;;;;8.85;3.90;;;;;;;;;;10450330;28;19930;-81
2023/05/19 08:35:33;;;;;;;9.70;4.20;;;;;;;;;;10455786;28;20044;-83
2023/05/19 08:40:37;;;;;;;11.40;4.03;;;;;;;;;;10457490;28;20128;-83
2023/05/19 08:45:39;;;;;;;;;;;;;;;;;;10453564;28;20043;-83
2023/05/19 08:50:48;;;;;;;11.07;4.53;;;;;;;;;;10457008;28;19940;-82
2023/05/19 08:55:53;;;;;;;9.05;4.47;;;;;;;;;;10456409;28;21177;-81
2023/05/19 09:00:56;;;;;;;6.22;3.90;;;;;;;;;;10454863;28;20029;-82
2023/05/19 09:06:00;;;;;;;6.93;3.57;;;;;;;;;;10456315;28;20150;-83
2023/05/19 09:11:03;;;;;;;9.02;3.78;;;;;;;;;;10453059;28;20047;-82
2023/05/19 09:16:06;;;;;;;11.10;4.07;;;;;;;;;;10450813;28;20040;-83
2023/05/19 09:21:11;;;;;;;6.63;3.55;;;;;;;;;;10456508;28;20059;-83
2023/05/19 09:26:15;;;;;;;6.78;3.47;;;;;;;;;;10449859;28;20054;-82
2023/05/19 09:31:18;;;;;;;11.20;4.78;;;;;;;;;;10452324;28;20049;-83
2023/05/19 09:36:21;;;;;;;10.35;4.72;;;;;;;;;;10454324;28;20633;-83
2023/05/19 09:41:25;;;;;;;8.50;4.22;;;;;;;;;;10452884;28;20323;-84
2023/05/19 09:46:28;;;;;;;6.47;3.45;;;;;;;;;;10454026;28;20050;-83
2023/05/19 09:51:34;;;;;;;7.03;4.55;;;;;;;;;;10446377;28;20119;-85
2023/05/19 09:56:38;;;;;;;7.70;3.95;;;;;;;;;;10453949;28;20048;-83
2023/05/19 10:01:45;;;;;;;8.85;4.47;;;;;;;;;;10453200;28;20048;-85
2023/05/19 10:06:52;;;;;;;8.77;4.72;;;;;;;;;;10449013;28;20102;-83
2023/05/19 10:11:56;;;;;;;8.45;4.80;;;;;;;;;;10451872;28;20036;-86
2023/05/19 10:16:58;;;;;;;7.25;4.13;;;;;;;;;;10460057;28;20405;-84
2023/05/19 10:22:03;;;;;;;9.48;4.38;;;;;;;;;;10459493;28;20037;-85
2023/05/19 10:27:07;;;;;;;7.03;3.65;;;;;;;;;;10460862;28;20044;-81
2023/05/19 10:32:11;;;;;;;9.88;4.72;;;;;;;;;;10455728;28;20061;-87
2023/05/19 10:37:17;;;;;;;7.13;4.30;;;;;;;;;;10453829;28;20059;-87
2023/05/19 10:42:28;;;;;;;7.05;4.25;;;;;;;;;;10451248;28;20533;-86
2023/05/19 10:47:32;;;;;;;9.20;4.53;;;;;;;;;;10449684;28;20044;-86
2023/05/19 10:52:38;;;;;;;7.63;4.32;;;;;;;;;;10447905;28;20037;-84
2023/05/19 10:57:53;;;;;;;8.40;4.53;;;;;;;;;;10455038;28;20067;-85
2023/05/19 11:03:12;;;;;;;10.00;5.38;;;;;;;;;;10442587;28;20055;-86
2023/05/19 11:08:16;;;;;;;7.93;4.88;;;;;;;;;;10437643;28;20386;-85
2023/05/19 11:13:21;;;;;;;11.48;5.07;;;;;;;;;;10448877;28;20119;-86
2023/05/19 11:18:24;;;;;;;10.30;4.80;;;;;;;;;;10456604;28;20045;-87
2023/05/19 11:23:33;;;;;;;9.85;5.03;;;;;;;;;;10456423;28;20098;-86
2023/05/19 11:28:37;;;;;;;9.52;5.00;;;;;;;;;;10459021;28;20067;-86
2023/05/19 11:33:40;;;;;;;9.93;5.15;;;;;;;;;;10463966;28;20044;-89
2023/05/19 11:38:46;;;;;;;8.45;5.03;;;;;;;;;;10467113;28;20044;-84
2023/05/19 11:43:49;;;;;;;8.90;5.55;;;;;;;;;;10464631;28;20112;-80
2023/05/19 11:48:53;;;;;;;8.60;5.50;;;;;;;;;;10470253;28;20051;-79
2023/05/19 11:53:58;;;;;;;9.65;5.82;;;;;;;;;;10469347;28;20552;-78
2023/05/19 11:59:01;;;;;;;11.77;5.95;;;;;;;;;;10463259;28;20025;-79
2023/05/19 12:04:07;;;;;;;12.83;5.97;;;;;;;;;;10469996;28;20392;-79
2023/05/19 12:09:11;;;;;;;10.55;5.35;;;;;;;;;;10474880;28;20287;-78
2023/05/19 12:14:18;;;;;;;11.93;6.38;;;;;;;;;;10477983;28;20040;-78
2023/05/19 12:19:22;;;;;;;10.63;5.50;;;;;;;;;;10479190;28;20971;-79
2023/05/19 12:24:27;;;;;;;9.85;5.25;;;;;;;;;;10480506;28;20509;-77
2023/05/19 12:29:31;;;;;;;10.25;5.18;;;;;;;;;;10470984;28;20044;-80
2023/05/19 12:34:35;;;;;;;13.35;6.03;;;;;;;;;;10483235;28;20158;-78
2023/05/19 12:39:39;;;;;;;13.57;5.95;;;;;;;;;;10472392;28;20094;-79
2023/05/19 12:44:45;;;;;;;12.27;5.40;;;;;;;;;;10477767;28;20535;-80
2023/05/19 12:49:55;;;;;;;10.35;5.80;;;;;;;;;;10455644;28;20048;-80
2023/05/19 12:55:00;;;;;;;11.13;6.05;;;;;;;;;;10477435;28;20047;-79
2023/05/19 13:00:05;;;;;;;12.50;5.72;;;;;;;;;;10472324;28;20099;-80
2023/05/19 13:05:08;;;;;;;11.68;5.75;;;;;;;;;;10465002;28;20060;-77
2023/05/19 13:10:12;;;;;;;8.73;5.15;;;;;;;;;;10455545;28;20131;-78
2023/05/19 13:15:15;;;;;;;9.82;5.15;;;;;;;;;;10476257;28;20048;-79
2023/05/19 13:20:18;;;;;;;11.90;5.88;;;;;;;;;;10476799;28;20048;-79
2023/05/19 13:25:22;;;;;;;10.35;5.65;;;;;;;;;;10468748;28;20124;-79
2023/05/19 13:30:24;;;;;;;9.77;5.40;;;;;;;;;;10469957;28;20137;-79
2023/05/19 13:35:27;;;;;;;10.33;5.70;;;;;;;;;;10474157;28;20673;-79
2023/05/19 13:40:33;;;;;;;10.15;5.18;;;;;;;;;;10472462;28;20337;-78
2023/05/19 13:45:36;;;;;;;9.73;5.88;;;;;;;;;;10476612;28;20068;-79
2023/05/19 13:50:39;;;;;;;10.35;6.07;;;;;;;;;;10472522;28;20043;-80
2023/05/19 13:55:43;;;;;;;10.07;5.85;;;;;;;;;;10458235;28;20132;-80
2023/05/19 14:00:46;;;;;;;12.57;6.32;;;;;;;;;;10471411;28;20048;-80
2023/05/19 14:05:49;;;;;;;11.52;5.78;;;;;;;;;;10475174;28;20056;-79
2023/05/19 14:10:55;;;;;;;8.50;5.43;;;;;;;;;;10477568;28;20048;-80
2023/05/19 14:15:57;;;;;;;9.50;5.55;;;;;;;;;;10468583;28;20040;-79
2023/05/19 14:21:00;;;;;;;10.68;5.40;;;;;;;;;;10471010;28;20117;-79
2023/05/19 14:26:04;;;;;;;8.43;5.00;;;;;;;;;;10469284;28;20047;-79
2023/05/19 14:31:10;;;;;;;7.65;5.13;;;;;;;;;;10468784;28;20557;-79
2023/05/19 14:36:13;;;;;;;10.30;5.78;;;;;;;;;;10468839;28;20119;-80
2023/05/19 14:41:17;;;;;;;11.03;5.50;;;;;;;;;;10475140;28;20464;-79
2023/05/19 14:46:20;;;;;;;9.88;5.45;;;;;;;;;;10469046;28;20041;-79
2023/05/19 14:51:23;;;;;;;10.50;4.77;;;;;;;;;;10474460;28;20028;-79
2023/05/19 14:56:27;;;;;;;10.55;5.10;;;;;;;;;;10455753;28;20032;-80
2023/05/19 15:01:29;;;;;;;9.90;5.13;;;;;;;;;;10456879;28;20370;-79
2023/05/19 15:06:33;;;;;;;9.98;5.00;;;;;;;;;;10466787;28;20110;-79
2023/05/19 15:11:37;;;;;;;9.00;4.82;;;;;;;;;;10470489;28;20754;-79
2023/05/19 15:16:39;;;;;;;6.70;3.75;;;;;;;;;;10467679;28;20102;-79
2023/05/19 15:21:43;;;;;;;9.23;4.67;;;;;;;;;;10469232;28;20527;-79
2023/05/19 15:26:47;;;;;;;8.00;4.57;;;;;;;;;;10452465;28;20045;-81
2023/05/19 15:31:51;;;;;;;11.30;5.07;;;;;;;;;;10472609;28;20044;-80
2023/05/19 15:36:53;;;;;;;9.13;4.78;;;;;;;;;;10466615;28;20522;-78
2023/05/19 15:41:57;;;;;;;12.13;4.93;;;;;;;;;;10474458;28;20128;-79
2023/05/19 15:47:00;;;;;;;10.30;5.30;;;;;;;;;;10482736;28;20059;-80
2023/05/19 15:52:03;;;;;;;8.75;4.72;;;;;;;;;;10479984;28;20554;-79
2023/05/19 15:57:08;;;;;;;8.15;4.80;;;;;;;;;;10479067;28;20028;-79
2023/05/19 16:02:10;;;;;;;9.10;4.43;;;;;;;;;;10477986;28;20091;-79
2023/05/19 16:07:15;;;;;;;8.82;4.93;;;;;;;;;;10480706;28;20040;-79
2023/05/19 16:12:19;;;;;;;8.13;4.30;;;;;;;;;;10483842;28;20299;-79
2023/05/19 16:17:22;;;;;;;10.10;4.85;;;;;;;;;;10480523;28;20048;-79
2023/05/19 16:22:26;;;;;;;10.63;5.10;;;;;;;;;;10478487;28;20160;-79
2023/05/19 16:27:30;;;;;;;8.98;5.40;;;;;;;;;;10481080;28;20185;-78
2023/05/19 16:32:32;;;;;;;8.45;4.40;;;;;;;;;;10471636;28;20044;-79
2023/05/19 16:37:36;;;;;;;8.98;4.50;;;;;;;;;;10481106;28;20052;-80
2023/05/19 16:42:40;;;;;;;10.20;4.80;;;;;;;;;;10475661;28;20032;-80
2023/05/19 16:47:46;;;;;;;12.13;5.22;;;;;;;;;;10477333;28;20073;-80
2023/05/19 16:52:49;;;;;;;9.73;4.85;;;;;;;;;;10473298;28;20045;-79
2023/05/19 16:57:53;;;;;;;9.43;5.13;;;;;;;;;;10477916;28;20383;-79
2023/05/19 17:02:56;;;;;;;10.30;4.70;;;;;;;;;;10479677;28;20044;-79
2023/05/19 17:07:59;;;;;;;9.77;4.70;;;;;;;;;;10481156;28;20346;-80
2023/05/19 17:13:04;;;;;;;7.97;4.50;;;;;;;;;;10461383;28;20101;-79
2023/05/19 17:18:07;;;;;;;9.00;4.57;;;;;;;;;;10474980;28;20043;-80
2023/05/19 17:23:10;;;;;;;8.15;4.57;;;;;;;;;;10479945;28;20041;-79
2023/05/19 17:28:14;;;;;;;8.43;4.20;;;;;;;;;;10477399;28;20036;-79
2023/05/19 17:33:18;;;;;;;7.90;4.25;;;;;;;;;;10477045;28;20168;-80
2023/05/19 17:38:21;;;;;;;9.02;4.63;;;;;;;;;;10475137;28;20116;-80
2023/05/19 17:43:26;;;;;;;8.07;4.13;;;;;;;;;;10475830;28;20044;-79
2023/05/19 17:48:29;;;;;;;10.32;4.15;;;;;;;;;;10475360;28;20295;-79
2023/05/19 17:53:33;;;;;;;9.40;4.43;;;;;;;;;;10478105;28;20103;-79
2023/05/19 17:58:38;;;;;;;10.13;4.75;;;;;;;;;;10471191;28;20127;-80
2023/05/19 18:03:42;;;;;;;8.63;4.53;;;;;;;;;;10469544;28;20107;-80
2023/05/19 18:08:49;;;;;;;8.60;4.07;;;;;;;;;;10464097;28;20079;-80
2023/05/19 18:13:54;;;;;;;8.88;4.50;;;;;;;;;;10475066;28;20464;-79
2023/05/19 18:18:56;;;;;;;9.68;4.35;;;;;;;;;;10479436;28;20397;-79
2023/05/19 18:24:01;;;;;;;8.53;4.17;;;;;;;;;;10478604;28;20044;-79
2023/05/19 18:29:06;;;;;;;8.63;4.13;;;;;;;;;;10468601;28;20311;-79
2023/05/19 18:34:09;;;;;;;10.25;4.55;;;;;;;;;;10467483;28;20134;-79
2023/05/19 18:39:12;;;;;;;11.35;5.13;;;;;;;;;;10468994;28;20102;-79
2023/05/19 18:44:16;;;;;;;9.88;4.68;;;;;;;;;;10471991;28;20686;-80
2023/05/19 18:49:20;;;;;;;8.98;4.78;;;;;;;;;;10472228;28;20064;-79
2023/05/19 18:54:23;;;;;;;8.93;4.70;;;;;;;;;;10470164;28;20520;-79
2023/05/19 18:59:28;;;;;;;10.35;4.60;;;;;;;;;;10475219;28;20045;-80
2023/05/19 19:04:31;;;;;;;8.55;4.72;;;;;;;;;;10473556;28;20124;-79
2023/05/19 19:09:34;;;;;;;11.02;4.80;;;;;;;;;;10474534;28;20052;-79
2023/05/19 19:14:38;;;;;;;10.52;5.20;;;;;;;;;;10472369;28;20115;-79
2023/05/19 19:19:41;;;;;;;8.93;4.55;;;;;;;;;;10463553;28;20029;-80
2023/05/19 19:24:45;;;;;;;10.48;4.63;;;;;;;;;;10468769;28;20049;-80
2023/05/19 19:29:49;;;;;;;11.52;4.72;;;;;;;;;;10480008;28;20123;-79
2023/05/19 19:34:52;;;;;;;11.27;5.10;;;;;;;;;;10470503;28;20041;-79
2023/05/19 19:39:55;;;;;;;12.23;5.30;;;;;;;;;;10476704;28;20052;-78
2023/05/19 19:44:59;;;;;;;8.82;4.70;;;;;;;;;;10472616;28;20075;-78
2023/05/19 19:50:04;;;;;;;8.75;4.40;;;;;;;;;;10473238;28;20064;-79
2023/05/19 19:55:08;;;;;;;9.25;4.72;;;;;;;;;;10456102;28;20044;-78
2023/05/19 20:00:13;;;;;;;9.05;5.03;;;;;;;;;;10473795;28;20047;-79
2023/05/19 20:05:16;;;;;;;9.23;5.40;;;;;;;;;;10470308;28;20037;-80
2023/05/19 20:10:19;;;;;;;13.88;5.18;;;;;;;;;;10472036;28;20111;-79
2023/05/19 20:15:24;;;;;;;8.40;4.38;;;;;;;;;;10453852;28;20028;-80
2023/05/19 20:20:27;;;;;;;8.95;4.47;;;;;;;;;;10466918;28;20068;-79
2023/05/19 20:25:29;;;;;;;13.77;4.70;;;;;;;;;;10475197;28;20040;-79
2023/05/19 20:30:34;;;;;;;8.63;4.05;;;;;;;;;;10471032;28;20131;-79
2023/05/19 20:35:37;;;;;;;6.97;3.95;;;;;;;;;;10459934;28;20041;-79
2023/05/19 20:40:40;;;;;;;6.55;3.53;;;;;;;;;;10476049;28;20419;-80
2023/05/19 20:45:45;;;;;;;9.17;4.67;;;;;;;;;;10475227;28;20105;-78
2023/05/19 20:50:48;;;;;;;9.13;4.25;;;;;;;;;;10476189;28;20115;-79
2023/05/19 20:55:51;;;;;;;8.53;4.40;;;;;;;;;;10475932;28;20032;-79
2023/05/19 21:00:56;;;;;;;9.75;3.47;;;;;;;;;;10474259;28;20043;-79
2023/05/19 21:06:00;;;;;;;8.65;3.83;;;;;;;;;;10476359;28;20382;-79
2023/05/19 21:11:03;;;;;;;7.65;3.90;;;;;;;;;;10478820;28;20049;-80
2023/05/19 21:16:08;;;;;;;8.13;3.53;;;;;;;;;;10473482;28;20037;-79
2023/05/19 21:21:10;;;;;;;6.72;3.15;;;;;;;;;;10474786;28;20040;-79
2023/05/19 21:26:13;;;;;;;5.90;3.40;;;;;;;;;;10474876;28;20040;-80
2023/05/19 21:31:18;;;;;;;5.95;3.13;;;;;;;;;;10474197;28;20494;-80
2023/05/19 21:36:21;;;;;;;6.65;3.00;;;;;;;;;;10478622;28;20346;-79
2023/05/19 21:41:25;;;;;;;4.80;2.72;;;;;;;;;;10479570;28;20056;-80
2023/05/19 21:46:29;;;;;;;6.65;2.70;;;;;;;;;;10456508;28;20033;-79
2023/05/19 21:51:33;;;;;;;4.38;2.75;;;;;;;;;;10473890;28;20131;-79
2023/05/19 21:56:37;;;;;;;5.50;2.75;;;;;;;;;;10467685;28;20461;-79
2023/05/19 22:01:41;;;;;;;4.32;2.63;;;;;;;;;;10477362;28;20691;-79
2023/05/19 22:06:44;;;;;;;4.93;2.60;;;;;;;;;;10478810;28;20051;-79
2023/05/19 22:11:47;;;;;;;5.13;2.87;;;;;;;;;;10470827;28;20473;-79
2023/05/19 22:16:52;;;;;;;4.57;2.92;;;;;;;;;;10474471;28;20040;-79
2023/05/19 22:21:55;;;;;;;4.57;2.67;;;;;;;;;;10481992;28;20075;-80
2023/05/19 22:27:14;;;;;;;5.80;3.25;;;;;;;;;;10473844;28;20134;-80
2023/05/19 22:32:19;;;;;;;5.50;3.00;;;;;;;;;;10473068;28;20060;-80
2023/05/19 22:37:23;;;;;;;5.82;2.95;;;;;;;;;;10464970;28;20049;-79
2023/05/19 22:42:25;;;;;;;;;;;;;;;;;;10470427;28;20509;-79
2023/05/19 22:47:30;;;;;;;5.10;2.70;;;;;;;;;;10477877;28;19929;-79
2023/05/19 22:52:33;;;;;;;5.65;3.05;;;;;;;;;;10473006;28;20040;-79
2023/05/19 22:57:36;;;;;;;5.40;2.72;;;;;;;;;;10476357;28;20508;-79
2023/05/19 23:02:40;;;;;;;6.80;3.40;;;;;;;;;;10466661;28;20044;-80
2023/05/19 23:07:43;;;;;;;5.18;3.13;;;;;;;;;;10477448;28;20367;-79
2023/05/19 23:12:47;;;;;;;8.23;3.83;;;;;;;;;;10475813;28;20539;-79
2023/05/19 23:17:50;;;;;;;;;;;;;;;;;;10469672;28;20041;-78
2023/05/19 23:22:55;;;;;;;6.60;3.20;;;;;;;;;;10464565;28;19927;-78
2023/05/19 23:27:57;;;;;;;;;;;;;;;;;;10471765;28;20297;-79
2023/05/19 23:33:00;;;;;;;5.20;3.15;;;;;;;;;;10469881;28;19924;-78
2023/05/19 23:38:04;;;;;;;7.17;3.40;;;;;;;;;;10466400;28;20048;-78
2023/05/19 23:43:07;;;;;;;6.40;3.38;;;;;;;;;;10469375;28;20321;-80
2023/05/19 23:48:11;;;;;;;6.37;3.20;;;;;;;;;;10477520;28;20042;-80
2023/05/19 23:53:15;;;;;;;8.83;3.43;;;;;;;;;;10470235;28;20044;-79
2023/05/19 23:58:19;;;;;;;6.20;3.45;;;;;;;;;;10471456;28;20040;-79
